createdAt,value
2022-10-03T00:02:00.635Z,13.60
2022-10-03T00:04:01.302Z,13.40
2022-10-03T00:06:08.781Z,13.40
2022-10-03T00:08:08.160Z,13.40
2022-10-03T00:10:06.878Z,13.50
2022-10-03T00:12:08.401Z,13.50
2022-10-03T00:14:01.932Z,13.50
2022-10-03T00:16:02.018Z,13.50
2022-10-03T00:18:01.797Z,13.40
2022-10-03T00:20:00.230Z,13.40
2022-10-03T00:22:03.002Z,13.40
2022-10-03T00:24:00.831Z,13.20
2022-10-03T00:25:58.513Z,13.30
2022-10-03T00:27:54.246Z,13.40
2022-10-03T00:30:01.471Z,13.40
2022-10-03T00:32:00.152Z,13.40
2022-10-03T00:33:59.697Z,13.40
2022-10-03T00:36:07.044Z,13.40
2022-10-03T00:38:08.551Z,13.20
2022-10-03T00:40:23.004Z,13.30
2022-10-03T00:42:50.034Z,13.30
2022-10-03T00:45:02.250Z,13.10
2022-10-03T00:47:22.007Z,13.20
2022-10-03T00:49:52.746Z,13.20
2022-10-03T00:51:54.792Z,13.30
2022-10-03T00:53:52.695Z,13.20
2022-10-03T00:55:58.440Z,13.30
2022-10-03T00:58:15.786Z,13.30
2022-10-03T01:00:16.366Z,13.20
2022-10-03T01:02:37.186Z,13.20
2022-10-03T01:04:50.519Z,13.20
2022-10-03T01:06:46.399Z,13.20
2022-10-03T01:08:49.577Z,13.20
2022-10-03T01:10:45.836Z,13.10
2022-10-03T01:12:49.466Z,13.10
2022-10-03T01:14:53.263Z,13.10
2022-10-03T01:16:54.041Z,13.20
2022-10-03T01:18:52.862Z,13.10
2022-10-03T01:20:50.590Z,13.10
2022-10-03T01:23:14.181Z,13.20
2022-10-03T01:25:11.678Z,13.20
2022-10-03T01:27:04.889Z,13.30
2022-10-03T01:28:59.510Z,13.20
2022-10-03T01:30:51.821Z,13.10
2022-10-03T01:32:47.947Z,13.10
2022-10-03T01:34:42.632Z,13.10
2022-10-03T01:36:39.030Z,13.30
2022-10-03T01:38:36.489Z,13.30
2022-10-03T01:40:30.078Z,13.30
2022-10-03T01:42:31.912Z,13.20
2022-10-03T01:44:28.156Z,13.10
2022-10-03T01:46:22.363Z,13.00
2022-10-03T01:48:20.090Z,13.00
2022-10-03T01:50:16.220Z,13.00
2022-10-03T01:52:10.657Z,13.10
2022-10-03T01:54:16.857Z,13.10
2022-10-03T01:56:12.066Z,13.20
2022-10-03T01:58:07.692Z,13.20
2022-10-03T02:00:04.422Z,13.20
2022-10-03T02:02:01.917Z,13.20
2022-10-03T02:03:55.894Z,13.10
2022-10-03T02:05:50.232Z,13.00
2022-10-03T02:07:45.979Z,13.10
2022-10-03T02:09:41.316Z,13.10
2022-10-03T02:11:38.258Z,13.20
2022-10-03T02:13:37.522Z,13.20
2022-10-03T02:15:34.955Z,13.10
2022-10-03T02:17:35.317Z,13.00
2022-10-03T02:19:28.490Z,13.00
2022-10-03T02:21:21.031Z,13.00
2022-10-03T02:23:24.003Z,13.00
2022-10-03T02:25:36.915Z,13.00
2022-10-03T02:27:46.238Z,12.90
2022-10-03T02:30:09.867Z,12.80
2022-10-03T02:32:40.997Z,12.80
2022-10-03T02:34:55.176Z,12.80
2022-10-03T02:37:15.734Z,12.90
2022-10-03T02:39:41.902Z,13.00
2022-10-03T02:41:51.898Z,13.00
2022-10-03T02:44:11.014Z,13.00
2022-10-03T02:46:23.757Z,12.90
2022-10-03T02:48:48.025Z,12.90
2022-10-03T02:51:10.177Z,12.90
2022-10-03T02:53:30.384Z,12.90
2022-10-03T02:55:52.563Z,12.90
2022-10-03T02:58:23.472Z,13.00
2022-10-03T03:00:17.733Z,12.90
2022-10-03T03:02:24.450Z,12.70
2022-10-03T03:04:35.837Z,12.60
2022-10-03T03:06:52.615Z,12.80
2022-10-03T03:09:26.061Z,12.80
2022-10-03T03:11:59.170Z,12.80
2022-10-03T03:14:20.166Z,12.90
2022-10-03T03:16:34.895Z,12.70
2022-10-03T03:18:32.726Z,12.70
2022-10-03T03:20:36.238Z,12.70
2022-10-03T03:22:34.911Z,12.70
2022-10-03T03:24:39.820Z,12.70
2022-10-03T03:26:49.965Z,12.60
2022-10-03T03:28:46.404Z,12.60
2022-10-03T03:30:40.762Z,12.70
2022-10-03T03:32:39.823Z,12.60
2022-10-03T03:34:35.505Z,12.60
2022-10-03T03:36:33.862Z,12.70
2022-10-03T03:38:31.972Z,12.70
2022-10-03T03:40:35.417Z,12.70
2022-10-03T03:42:37.335Z,12.80
2022-10-03T03:44:46.885Z,12.80
2022-10-03T03:46:46.033Z,12.90
2022-10-03T03:48:50.702Z,13.00
2022-10-03T03:50:54.415Z,13.00
2022-10-03T03:53:11.089Z,13.00
2022-10-03T03:55:35.226Z,12.90
2022-10-03T03:57:59.515Z,12.90
2022-10-03T04:00:02.238Z,12.90
2022-10-03T04:01:56.134Z,13.00
2022-10-03T04:03:55.995Z,13.00
2022-10-03T04:06:10.495Z,12.90
2022-10-03T04:08:24.490Z,13.00
2022-10-03T04:10:27.481Z,13.10
2022-10-03T04:12:27.055Z,13.10
2022-10-03T04:14:35.499Z,13.00
2022-10-03T04:16:50.508Z,13.00
2022-10-03T04:18:54.873Z,13.10
2022-10-03T04:20:56.741Z,13.20
2022-10-03T04:22:59.776Z,13.30
2022-10-03T04:25:15.647Z,13.30
2022-10-03T04:27:21.080Z,13.40
2022-10-03T04:29:42.628Z,13.40
2022-10-03T04:31:40.861Z,13.50
2022-10-03T04:33:43.603Z,13.50
2022-10-03T04:36:07.426Z,13.50
2022-10-03T04:38:06.433Z,13.50
2022-10-03T04:40:08.508Z,13.50
2022-10-03T04:42:08.118Z,13.60
2022-10-03T04:44:03.794Z,13.70
2022-10-03T04:46:01.405Z,13.70
2022-10-03T04:47:53.457Z,13.70
2022-10-03T04:49:45.927Z,13.70
2022-10-03T04:51:45.642Z,13.70
2022-10-03T04:53:44.416Z,13.80
2022-10-03T04:55:41.609Z,13.70
2022-10-03T04:57:37.961Z,13.70
2022-10-03T04:59:47.003Z,13.70
2022-10-03T05:01:43.471Z,13.60
2022-10-03T05:03:42.364Z,13.70
2022-10-03T05:05:50.361Z,13.80
2022-10-03T05:07:47.723Z,13.80
2022-10-03T05:09:44.553Z,13.80
2022-10-03T05:11:48.281Z,13.80
2022-10-03T05:13:44.917Z,13.70
2022-10-03T05:15:42.204Z,13.70
2022-10-03T05:17:44.772Z,13.80
2022-10-03T05:19:46.458Z,13.80
2022-10-03T05:21:39.935Z,13.80
2022-10-03T05:23:39.208Z,13.70
2022-10-03T05:25:38.884Z,13.60
2022-10-03T05:27:36.966Z,13.60
2022-10-03T05:29:34.713Z,13.60
2022-10-03T05:31:35.258Z,13.60
2022-10-03T05:33:34.004Z,13.80
2022-10-03T05:35:29.452Z,13.70
2022-10-03T05:37:33.105Z,13.60
2022-10-03T05:39:27.228Z,13.40
2022-10-03T05:41:26.144Z,13.30
2022-10-03T05:43:31.559Z,13.30
2022-10-03T05:45:28.209Z,13.30
2022-10-03T05:47:26.796Z,13.20
2022-10-03T05:49:47.509Z,13.20
2022-10-03T05:51:51.962Z,13.20
2022-10-03T05:54:30.929Z,13.20
2022-10-03T05:56:29.008Z,13.30
2022-10-03T05:58:38.904Z,13.30
2022-10-03T06:00:38.504Z,13.20
2022-10-03T06:02:51.973Z,13.10
2022-10-03T06:04:54.850Z,13.10
2022-10-03T06:06:54.269Z,13.20
2022-10-03T06:09:07.214Z,13.30
2022-10-03T06:11:05.010Z,13.20
2022-10-03T06:13:06.910Z,13.20
2022-10-03T06:15:14.394Z,13.20
2022-10-03T06:17:26.256Z,13.20
2022-10-03T06:19:29.857Z,13.20
2022-10-03T06:21:43.286Z,13.30
2022-10-03T06:23:52.506Z,13.30
2022-10-03T06:25:56.265Z,13.20
2022-10-03T06:28:24.529Z,13.20
2022-10-03T06:30:23.633Z,13.30
2022-10-03T06:32:37.709Z,13.30
2022-10-03T06:34:45.173Z,13.30
2022-10-03T06:36:50.177Z,13.30
2022-10-03T06:39:07.750Z,13.20
2022-10-03T06:41:30.676Z,13.20
2022-10-03T06:43:40.460Z,13.20
2022-10-03T06:46:06.195Z,13.20
2022-10-03T06:48:25.677Z,13.20
2022-10-03T06:50:32.972Z,13.30
2022-10-03T06:52:45.540Z,13.40
2022-10-03T06:55:01.046Z,13.50
2022-10-03T06:57:21.162Z,13.60
2022-10-03T06:59:43.063Z,13.70
2022-10-03T07:02:10.731Z,13.70
2022-10-03T07:04:13.576Z,13.80
2022-10-03T07:06:13.569Z,13.80
2022-10-03T07:08:25.828Z,13.90
2022-10-03T07:10:25.100Z,13.90
2022-10-03T07:12:44.884Z,13.90
2022-10-03T07:14:58.475Z,14.10
2022-10-03T07:17:11.963Z,14.20
2022-10-03T07:19:14.406Z,14.20
2022-10-03T07:21:29.257Z,14.20
2022-10-03T07:23:49.048Z,14.30
2022-10-03T07:26:24.222Z,14.40
2022-10-03T07:28:34.992Z,14.30
2022-10-03T07:30:26.667Z,14.50
2022-10-03T07:32:34.215Z,14.40
2022-10-03T07:35:05.847Z,14.50
2022-10-03T07:37:15.495Z,14.50
2022-10-03T07:39:40.841Z,14.60
2022-10-03T07:42:00.415Z,14.60
2022-10-03T07:44:29.801Z,14.70
2022-10-03T07:46:52.802Z,14.80
2022-10-03T07:49:05.241Z,14.90
2022-10-03T07:51:10.842Z,15.00
2022-10-03T07:53:16.080Z,15.00
2022-10-03T07:55:26.016Z,15.10
2022-10-03T07:57:27.745Z,15.20
2022-10-03T07:59:47.327Z,15.30
2022-10-03T08:01:48.617Z,15.40
2022-10-03T08:04:10.500Z,15.50
2022-10-03T08:06:19.677Z,15.50
2022-10-03T08:08:46.860Z,15.60
2022-10-03T08:11:18.185Z,15.60
2022-10-03T08:13:26.793Z,15.70
2022-10-03T08:15:23.205Z,15.70
2022-10-03T08:17:39.788Z,15.80
2022-10-03T08:19:58.850Z,15.80
2022-10-03T08:21:56.764Z,15.80
2022-10-03T08:24:10.053Z,15.90
2022-10-03T08:26:11.651Z,16.00
2022-10-03T08:28:30.942Z,16.00
2022-10-03T08:30:22.983Z,16.10
2022-10-03T08:32:48.975Z,16.20
2022-10-03T08:35:05.822Z,16.30
2022-10-03T08:37:29.622Z,16.30
2022-10-03T08:39:46.601Z,16.40
2022-10-03T08:42:12.112Z,16.50
2022-10-03T08:44:32.151Z,16.60
2022-10-03T08:46:45.987Z,16.70
2022-10-03T08:49:11.170Z,16.80
2022-10-03T08:51:16.141Z,16.90
2022-10-03T08:53:41.109Z,16.90
2022-10-03T08:55:42.060Z,17.00
2022-10-03T08:57:46.718Z,17.00
2022-10-03T08:59:55.860Z,17.10
2022-10-03T09:02:20.346Z,17.10
2022-10-03T09:04:39.393Z,17.20
2022-10-03T09:07:17.624Z,17.20
2022-10-03T09:09:46.557Z,17.30
2022-10-03T09:12:15.939Z,17.20
2022-10-03T09:14:30.149Z,17.30
2022-10-03T09:16:40.933Z,17.30
2022-10-03T09:18:43.522Z,17.30
2022-10-03T09:20:49.040Z,17.30
2022-10-03T09:22:59.085Z,17.40
2022-10-03T09:25:17.168Z,17.30
2022-10-03T09:27:31.482Z,17.30
2022-10-03T09:29:40.757Z,17.30
2022-10-03T09:31:54.523Z,17.30
2022-10-03T09:34:08.001Z,17.30
2022-10-03T09:36:15.966Z,17.30
2022-10-03T09:38:43.666Z,17.30
2022-10-03T09:41:11.485Z,17.40
2022-10-03T09:43:35.365Z,17.40
2022-10-03T09:46:08.684Z,17.40
2022-10-03T09:48:25.563Z,17.40
2022-10-03T09:50:51.512Z,17.50
2022-10-03T09:52:58.555Z,17.50
2022-10-03T09:55:17.316Z,17.50
2022-10-03T09:57:43.941Z,17.50
2022-10-03T10:00:01.981Z,17.60
2022-10-03T10:01:59.624Z,17.60
2022-10-03T10:04:13.024Z,17.60
2022-10-03T10:06:30.784Z,17.80
2022-10-03T10:08:42.833Z,17.80
2022-10-03T10:11:12.303Z,17.80
2022-10-03T10:13:22.732Z,17.80
2022-10-03T10:15:45.891Z,17.80
2022-10-03T10:18:13.917Z,17.80
2022-10-03T10:20:10.938Z,17.70
2022-10-03T10:22:30.720Z,17.60
2022-10-03T10:25:03.943Z,17.60
2022-10-03T10:27:24.521Z,17.70
2022-10-03T10:29:52.432Z,17.70
2022-10-03T10:32:17.867Z,17.80
2022-10-03T10:34:49.119Z,17.80
2022-10-03T10:37:20.508Z,17.80
2022-10-03T10:39:42.383Z,17.80
2022-10-03T10:42:04.737Z,17.70
2022-10-03T10:44:31.627Z,17.70
2022-10-03T10:46:58.103Z,17.70
2022-10-03T10:49:42.274Z,17.70
2022-10-03T10:52:09.626Z,17.60
2022-10-03T10:54:32.045Z,17.60
2022-10-03T10:56:54.293Z,17.60
2022-10-03T10:59:09.650Z,17.60
2022-10-03T11:01:41.711Z,17.60
2022-10-03T11:04:26.067Z,17.60
2022-10-03T11:06:59.392Z,17.70
2022-10-03T11:08:53.419Z,17.70
2022-10-03T11:10:59.386Z,17.70
2022-10-03T11:13:23.128Z,17.70
2022-10-03T11:16:05.529Z,17.60
2022-10-03T11:18:58.275Z,17.60
2022-10-03T11:21:17.590Z,17.70
2022-10-03T11:23:44.048Z,17.70
2022-10-03T11:26:20.034Z,17.70
2022-10-03T11:28:54.793Z,17.70
2022-10-03T11:31:08.306Z,17.70
2022-10-03T11:33:41.992Z,17.80
2022-10-03T11:36:12.227Z,17.70
2022-10-03T11:38:10.678Z,17.70
2022-10-03T11:40:26.457Z,17.80
2022-10-03T11:42:29.623Z,17.80
2022-10-03T11:44:25.685Z,17.80
2022-10-03T11:46:22.933Z,17.80
2022-10-03T11:48:31.457Z,17.80
2022-10-03T11:50:34.219Z,17.80
2022-10-03T11:52:30.964Z,17.80
2022-10-03T11:54:31.457Z,17.80
2022-10-03T11:56:33.887Z,17.80
2022-10-03T11:58:48.039Z,17.80
2022-10-03T12:00:41.877Z,17.80
2022-10-03T12:02:54.307Z,17.80
2022-10-03T12:04:46.872Z,17.80
2022-10-03T12:07:01.055Z,17.80
2022-10-03T12:09:02.269Z,17.80
2022-10-03T12:11:02.357Z,17.80
2022-10-03T12:12:54.769Z,17.80
2022-10-03T12:14:47.837Z,17.80
2022-10-03T12:16:56.126Z,17.80
2022-10-03T12:18:54.005Z,17.80
2022-10-03T12:21:01.727Z,17.80
2022-10-03T12:22:55.920Z,17.80
2022-10-03T12:24:47.513Z,17.80
2022-10-03T12:26:47.979Z,17.80
2022-10-03T12:28:40.256Z,17.80
2022-10-03T12:30:37.724Z,17.80
2022-10-03T12:32:36.961Z,17.80
2022-10-03T12:34:37.433Z,17.90
2022-10-03T12:36:30.304Z,17.90
2022-10-03T12:38:32.493Z,17.90
2022-10-03T12:40:25.873Z,17.90
2022-10-03T12:42:25.336Z,17.90
2022-10-03T12:44:24.057Z,17.90
2022-10-03T12:46:17.143Z,18.00
2022-10-03T12:48:26.520Z,18.00
2022-10-03T12:50:30.494Z,17.90
2022-10-03T12:52:24.210Z,17.90
2022-10-03T12:54:29.389Z,17.90
2022-10-03T12:56:28.461Z,18.00
2022-10-03T12:58:25.037Z,18.00
2022-10-03T13:00:20.069Z,18.00
2022-10-03T13:02:24.014Z,18.00
2022-10-03T13:04:23.361Z,18.10
2022-10-03T13:07:01.676Z,18.10
2022-10-03T13:08:58.281Z,18.20
2022-10-03T13:10:50.145Z,18.20
2022-10-03T13:12:44.756Z,18.20
2022-10-03T13:15:08.043Z,18.20
2022-10-03T13:17:00.308Z,18.20
2022-10-03T13:18:56.647Z,18.30
2022-10-03T13:20:55.927Z,18.20
2022-10-03T13:22:53.044Z,18.30
2022-10-03T13:24:48.993Z,18.30
2022-10-03T13:26:50.072Z,18.30
2022-10-03T13:28:55.058Z,18.40
2022-10-03T13:30:49.618Z,18.40
2022-10-03T13:32:42.599Z,18.50
2022-10-03T13:34:39.673Z,18.50
2022-10-03T13:36:38.339Z,18.50
2022-10-03T13:38:53.289Z,18.50
2022-10-03T13:40:44.860Z,18.50
2022-10-03T13:42:39.898Z,18.50
2022-10-03T13:44:36.492Z,18.50
2022-10-03T13:46:31.899Z,18.60
2022-10-03T13:48:24.124Z,18.60
2022-10-03T13:50:17.561Z,18.60
2022-10-03T13:52:18.662Z,18.60
2022-10-03T13:54:14.312Z,18.60
2022-10-03T13:56:09.145Z,18.60
2022-10-03T13:58:23.593Z,18.50
2022-10-03T14:00:15.801Z,18.50
2022-10-03T14:02:18.537Z,18.50
2022-10-03T14:04:27.333Z,18.50
2022-10-03T14:06:23.560Z,18.50
2022-10-03T14:08:26.401Z,18.50
2022-10-03T14:10:30.314Z,18.50
2022-10-03T14:12:43.880Z,18.50
2022-10-03T14:14:50.303Z,18.50
2022-10-03T14:16:43.704Z,18.50
2022-10-03T14:18:42.518Z,18.40
2022-10-03T14:20:38.460Z,18.40
2022-10-03T14:22:40.978Z,18.50
2022-10-03T14:24:40.112Z,18.50
2022-10-03T14:26:35.330Z,18.50
2022-10-03T14:28:29.152Z,18.50
2022-10-03T14:30:20.848Z,18.60
2022-10-03T14:32:42.453Z,18.60
2022-10-03T14:34:41.163Z,18.60
2022-10-03T14:36:38.388Z,18.60
2022-10-03T14:38:44.274Z,18.60
2022-10-03T14:40:40.941Z,18.60
2022-10-03T14:43:02.281Z,18.70
2022-10-03T14:44:55.528Z,18.70
2022-10-03T14:46:50.593Z,18.80
2022-10-03T14:48:45.078Z,18.80
2022-10-03T14:50:39.630Z,18.90
2022-10-03T14:52:34.321Z,18.80
2022-10-03T14:54:26.502Z,19.00
2022-10-03T14:56:18.722Z,19.00
2022-10-03T14:58:16.638Z,19.00
2022-10-03T15:00:08.064Z,19.00
2022-10-03T15:01:59.178Z,19.10
2022-10-03T15:03:58.818Z,19.20
2022-10-03T15:05:59.415Z,19.20
2022-10-03T15:07:50.102Z,19.20
2022-10-03T15:09:45.693Z,19.20
2022-10-03T15:11:44.801Z,19.10
2022-10-03T15:13:38.693Z,19.10
2022-10-03T15:15:31.035Z,19.10
2022-10-03T15:17:22.961Z,19.20
2022-10-03T15:19:17.706Z,19.20
2022-10-03T15:21:14.305Z,19.10
2022-10-03T15:23:06.716Z,19.00
2022-10-03T15:25:01.541Z,19.10
2022-10-03T15:26:57.490Z,18.90
2022-10-03T15:28:50.383Z,18.90
2022-10-03T15:30:41.952Z,18.90
2022-10-03T15:32:35.847Z,18.80
2022-10-03T15:34:30.539Z,18.80
2022-10-03T15:36:23.796Z,18.60
2022-10-03T15:38:16.130Z,18.60
2022-10-03T15:40:09.867Z,18.60
2022-10-03T15:42:05.385Z,18.70
2022-10-03T15:43:58.627Z,18.70
2022-10-03T15:45:49.157Z,18.80
2022-10-03T15:47:44.098Z,18.80
2022-10-03T15:49:37.292Z,18.80
2022-10-03T15:51:29.808Z,18.80
2022-10-03T15:53:38.155Z,18.90
2022-10-03T15:55:33.719Z,18.80
2022-10-03T15:57:28.931Z,18.80
2022-10-03T15:59:22.050Z,18.80
2022-10-03T16:01:16.841Z,18.80
2022-10-03T16:03:13.387Z,18.80
2022-10-03T16:05:06.677Z,18.70
2022-10-03T16:07:01.047Z,18.70
2022-10-03T16:08:59.305Z,18.80
2022-10-03T16:10:59.580Z,18.70
2022-10-03T16:13:16.297Z,18.60
2022-10-03T16:15:17.405Z,18.60
2022-10-03T16:17:14.294Z,18.50
2022-10-03T16:19:27.257Z,18.40
2022-10-03T16:21:28.311Z,18.30
2022-10-03T16:23:20.671Z,18.30
2022-10-03T16:25:16.190Z,18.30
2022-10-03T16:27:11.298Z,18.20
2022-10-03T16:29:08.170Z,18.20
2022-10-03T16:31:04.220Z,18.10
2022-10-03T16:33:03.093Z,18.10
2022-10-03T16:34:54.024Z,18.00
2022-10-03T16:36:46.325Z,18.10
2022-10-03T16:38:37.699Z,18.10
2022-10-03T16:40:28.783Z,18.10
2022-10-03T16:42:21.866Z,18.00
2022-10-03T16:44:21.003Z,17.90
2022-10-03T16:46:15.728Z,17.90
2022-10-03T16:48:11.464Z,17.80
2022-10-03T16:50:04.583Z,17.80
2022-10-03T16:52:00.979Z,17.80
2022-10-03T16:53:53.521Z,17.80
2022-10-03T16:55:45.504Z,17.80
2022-10-03T16:57:43.680Z,17.70
2022-10-03T16:59:37.046Z,17.60
2022-10-03T17:01:31.807Z,17.60
2022-10-03T17:03:24.740Z,17.50
2022-10-03T17:05:14.984Z,17.50
2022-10-03T17:07:11.804Z,17.50
2022-10-03T17:09:04.347Z,17.50
2022-10-03T17:10:56.066Z,17.50
2022-10-03T17:12:47.747Z,17.50
2022-10-03T17:14:41.895Z,17.50
2022-10-03T17:16:37.718Z,17.50
2022-10-03T17:18:30.748Z,17.50
2022-10-03T17:20:33.915Z,17.50
2022-10-03T17:22:29.991Z,17.50
2022-10-03T17:24:35.448Z,17.30
2022-10-03T17:26:28.435Z,17.20
2022-10-03T17:28:30.626Z,17.20
2022-10-03T17:30:28.983Z,17.20
2022-10-03T17:32:24.105Z,17.20
2022-10-03T17:34:18.798Z,17.10
2022-10-03T17:36:38.392Z,17.10
2022-10-03T17:38:49.471Z,17.00
2022-10-03T17:40:50.228Z,17.00
2022-10-03T17:42:43.050Z,16.90
2022-10-03T17:44:37.131Z,16.90
2022-10-03T17:46:37.128Z,16.80
2022-10-03T17:48:35.572Z,16.80
2022-10-03T17:50:29.564Z,16.90
2022-10-03T17:52:21.506Z,16.80
2022-10-03T17:54:14.831Z,16.90
2022-10-03T17:56:10.223Z,16.90
2022-10-03T17:58:04.816Z,16.80
2022-10-03T17:59:59.275Z,16.70
2022-10-03T18:01:53.395Z,16.60
2022-10-03T18:03:47.646Z,16.60
2022-10-03T18:05:40.970Z,16.50
2022-10-03T18:07:31.704Z,16.40
2022-10-03T18:09:32.288Z,16.40
2022-10-03T18:11:25.156Z,16.30
2022-10-03T18:13:17.136Z,16.30
2022-10-03T18:15:34.338Z,16.30
2022-10-03T18:17:32.306Z,16.30
2022-10-03T18:19:33.254Z,16.30
2022-10-03T18:21:35.406Z,16.20
2022-10-03T18:23:53.610Z,16.20
2022-10-03T18:26:18.171Z,16.20
2022-10-03T18:28:13.187Z,16.20
2022-10-03T18:30:05.789Z,16.30
2022-10-03T18:31:57.795Z,16.30
2022-10-03T18:33:55.192Z,16.30
2022-10-03T18:35:47.206Z,16.20
2022-10-03T18:38:05.655Z,16.10
2022-10-03T18:39:58.616Z,16.10
2022-10-03T18:41:50.949Z,16.00
2022-10-03T18:43:43.402Z,16.00
2022-10-03T18:45:42.520Z,16.00
2022-10-03T18:47:35.491Z,16.00
2022-10-03T18:49:34.109Z,16.00
2022-10-03T18:51:32.403Z,16.00
2022-10-03T18:53:28.761Z,16.00
2022-10-03T18:55:23.030Z,16.20
2022-10-03T18:57:19.125Z,16.20
2022-10-03T18:59:20.599Z,16.20
2022-10-03T19:01:17.463Z,16.20
2022-10-03T19:03:12.401Z,16.20
2022-10-03T19:05:10.166Z,16.20
2022-10-03T19:07:01.776Z,16.10
2022-10-03T19:08:55.803Z,16.00
2022-10-03T19:10:48.672Z,16.00
2022-10-03T19:12:42.392Z,15.90
2022-10-03T19:14:36.398Z,15.80
2022-10-03T19:16:55.941Z,15.80
2022-10-03T19:18:56.231Z,15.80
2022-10-03T19:20:50.646Z,15.80
2022-10-03T19:22:43.620Z,15.80
2022-10-03T19:24:57.176Z,15.80
2022-10-03T19:26:47.046Z,15.80
2022-10-03T19:28:37.538Z,15.90
2022-10-03T19:30:29.770Z,15.80
2022-10-03T19:32:22.225Z,15.80
2022-10-03T19:34:17.928Z,15.90
2022-10-03T19:36:15.985Z,15.80
2022-10-03T19:38:14.956Z,15.90
2022-10-03T19:40:13.257Z,16.00
2022-10-03T19:42:22.234Z,16.00
2022-10-03T19:44:15.966Z,16.10
2022-10-03T19:46:19.195Z,16.10
2022-10-03T19:48:11.233Z,16.00
2022-10-03T19:50:05.592Z,16.00
2022-10-03T19:52:15.951Z,15.90
2022-10-03T19:54:12.768Z,16.00
2022-10-03T19:56:03.960Z,15.90
2022-10-03T19:57:55.673Z,15.90
2022-10-03T19:59:47.067Z,16.00
2022-10-03T20:01:43.100Z,16.10
2022-10-03T20:03:38.553Z,16.20
2022-10-03T20:05:35.497Z,16.20
2022-10-03T20:07:43.639Z,16.20
2022-10-03T20:09:34.206Z,16.10
2022-10-03T20:11:34.047Z,16.00
2022-10-03T20:13:24.476Z,16.00
2022-10-03T20:15:19.846Z,16.10
2022-10-03T20:17:14.945Z,16.20
2022-10-03T20:19:08.595Z,16.10
2022-10-03T20:21:00.420Z,16.00
2022-10-03T20:22:53.733Z,15.90
2022-10-03T20:24:45.584Z,15.90
2022-10-03T20:26:38.588Z,15.80
2022-10-03T20:28:44.524Z,15.90
2022-10-03T20:30:40.360Z,15.90
2022-10-03T20:32:32.073Z,15.80
2022-10-03T20:34:23.866Z,15.60
2022-10-03T20:36:19.725Z,15.60
2022-10-03T20:38:19.919Z,15.60
2022-10-03T20:40:22.199Z,15.50
2022-10-03T20:42:14.041Z,15.50
2022-10-03T20:44:12.629Z,15.50
2022-10-03T20:46:14.005Z,15.50
2022-10-03T20:48:07.274Z,15.60
2022-10-03T20:50:00.538Z,15.50
2022-10-03T20:51:59.234Z,15.40
2022-10-03T20:53:51.969Z,15.40
2022-10-03T20:55:47.441Z,15.30
2022-10-03T20:57:44.576Z,15.40
2022-10-03T20:59:44.140Z,15.40
2022-10-03T21:01:35.657Z,15.30
2022-10-03T21:03:31.537Z,15.30
2022-10-03T21:05:24.058Z,15.20
2022-10-03T21:07:25.136Z,15.10
2022-10-03T21:09:20.442Z,15.10
2022-10-03T21:11:19.112Z,15.10
2022-10-03T21:13:15.440Z,15.10
2022-10-03T21:15:12.380Z,15.20
2022-10-03T21:17:03.438Z,15.10
2022-10-03T21:18:57.863Z,15.10
2022-10-03T21:20:56.090Z,15.10
2022-10-03T21:22:50.117Z,15.20
2022-10-03T21:24:47.022Z,15.20
2022-10-03T21:26:43.012Z,15.20
2022-10-03T21:28:35.481Z,15.10
2022-10-03T21:30:32.781Z,15.00
2022-10-03T21:32:48.968Z,15.00
2022-10-03T21:34:46.072Z,15.00
2022-10-03T21:36:45.579Z,15.00
2022-10-03T21:38:37.892Z,15.10
2022-10-03T21:41:09.823Z,15.00
2022-10-03T21:43:06.219Z,15.00
2022-10-03T21:45:19.426Z,15.00
2022-10-03T21:47:14.125Z,14.90
2022-10-03T21:49:26.635Z,14.80
2022-10-03T21:51:25.224Z,14.80
2022-10-03T21:53:21.863Z,14.70
2022-10-03T21:55:50.657Z,14.80
2022-10-03T21:57:48.717Z,14.80
2022-10-03T21:59:52.893Z,14.80
2022-10-03T22:01:48.186Z,14.70
2022-10-03T22:03:45.657Z,14.70
2022-10-03T22:05:43.150Z,14.70
2022-10-03T22:07:37.053Z,14.70
2022-10-03T22:09:28.036Z,14.80
2022-10-03T22:11:25.217Z,14.80
2022-10-03T22:13:18.746Z,14.70
2022-10-03T22:15:12.290Z,14.80
2022-10-03T22:17:08.391Z,14.80
2022-10-03T22:19:11.644Z,14.80
2022-10-03T22:21:09.077Z,14.80
2022-10-03T22:23:19.282Z,14.90
2022-10-03T22:25:20.873Z,14.80
2022-10-03T22:27:16.537Z,14.70
2022-10-03T22:29:12.736Z,14.70
2022-10-03T22:31:13.393Z,14.80
2022-10-03T22:33:10.847Z,14.90
2022-10-03T22:35:11.461Z,14.80
2022-10-03T22:37:02.390Z,14.90
2022-10-03T22:38:53.022Z,15.00
2022-10-03T22:40:44.118Z,15.10
2022-10-03T22:42:46.946Z,15.10
2022-10-03T22:44:43.444Z,15.10
2022-10-03T22:46:34.958Z,15.10
2022-10-03T22:48:29.102Z,15.20
2022-10-03T22:50:21.405Z,15.30
2022-10-03T22:52:18.219Z,15.20
2022-10-03T22:54:10.775Z,15.20
2022-10-03T22:56:23.723Z,15.10
2022-10-03T22:58:14.392Z,15.10
2022-10-03T23:00:10.153Z,15.00
2022-10-03T23:02:04.011Z,15.00
2022-10-03T23:03:55.366Z,14.90
2022-10-03T23:06:05.999Z,14.80
2022-10-03T23:08:04.615Z,14.80
2022-10-03T23:10:15.203Z,14.80
2022-10-03T23:12:06.621Z,14.70
2022-10-03T23:13:59.240Z,14.70
2022-10-03T23:15:51.756Z,14.70
2022-10-03T23:17:57.216Z,14.60
2022-10-03T23:19:52.461Z,14.60
2022-10-03T23:21:45.259Z,14.70
2022-10-03T23:23:48.461Z,14.80
2022-10-03T23:25:46.291Z,14.90
2022-10-03T23:27:55.435Z,15.00
2022-10-03T23:29:47.216Z,15.00
2022-10-03T23:31:56.153Z,15.10
2022-10-03T23:33:49.070Z,15.20
2022-10-03T23:35:41.922Z,15.40
2022-10-03T23:37:39.109Z,15.40
2022-10-03T23:39:32.128Z,15.40
2022-10-03T23:41:41.483Z,15.30
2022-10-03T23:43:37.096Z,15.40
2022-10-03T23:45:29.639Z,15.30
2022-10-03T23:47:27.410Z,15.30
2022-10-03T23:49:19.012Z,15.40
2022-10-03T23:51:12.773Z,15.40
2022-10-03T23:53:04.497Z,15.30
2022-10-03T23:54:58.237Z,15.30
2022-10-03T23:56:50.017Z,15.20
2022-10-03T23:58:40.554Z,15.20
